createdAt,value
2023-02-02T00:01:57.786Z,101249.56
2023-02-02T00:04:25.925Z,101252.03
2023-02-02T00:06:52.432Z,101250.91
2023-02-02T00:09:20.025Z,101252.53
2023-02-02T00:11:47.251Z,101256.94
2023-02-02T00:14:13.916Z,101246.63
2023-02-02T00:16:44.813Z,101251.03
2023-02-02T00:19:17.578Z,101259.88
2023-02-02T00:21:46.693Z,101256.28
2023-02-02T00:24:13.732Z,101254.81
2023-02-02T00:26:41.174Z,101254.50
2023-02-02T00:29:08.103Z,101248.09
2023-02-02T00:31:34.894Z,101253.34
2023-02-02T00:34:01.215Z,101243.03
2023-02-02T00:36:27.486Z,101251.03
2023-02-02T00:38:53.774Z,101249.41
2023-02-02T00:41:20.487Z,101248.25
2023-02-02T00:44:06.676Z,101252.69
2023-02-02T00:46:33.254Z,101253.81
2023-02-02T00:48:59.512Z,101253.81
2023-02-02T00:51:26.090Z,101255.78
2023-02-02T00:53:52.337Z,101248.59
2023-02-02T00:56:18.608Z,101254.97
2023-02-02T00:58:44.890Z,101262.50
2023-02-02T01:01:18.286Z,101269.22
2023-02-02T01:03:44.678Z,101264.78
2023-02-02T01:06:10.951Z,101270.03
2023-02-02T01:08:38.757Z,101266.44
2023-02-02T01:11:05.439Z,101274.44
2023-02-02T01:13:32.423Z,101272.47
2023-02-02T01:16:00.216Z,101270.19
2023-02-02T01:18:26.936Z,101270.19
2023-02-02T01:21:00.051Z,101279.84
2023-02-02T01:23:26.532Z,101272.66
2023-02-02T01:25:53.687Z,101272.31
2023-02-02T01:28:19.934Z,101283.59
2023-02-02T01:30:46.574Z,101271.34
2023-02-02T01:33:12.990Z,101274.94
2023-02-02T01:35:45.055Z,101278.53
2023-02-02T01:38:11.506Z,101281.00
2023-02-02T01:40:43.886Z,101272.97
2023-02-02T01:43:22.325Z,101291.28
2023-02-02T01:45:48.955Z,101285.25
2023-02-02T01:48:15.811Z,101283.28
2023-02-02T01:50:42.536Z,101293.59
2023-02-02T01:53:09.426Z,101299.16
2023-02-02T01:55:37.231Z,101300.31
2023-02-02T01:58:11.339Z,101302.25
2023-02-02T02:00:38.827Z,101299.78
2023-02-02T02:03:08.497Z,101300.94
2023-02-02T02:05:42.032Z,101299.31
2023-02-02T02:08:11.955Z,101299.94
2023-02-02T02:10:38.249Z,101300.28
2023-02-02T02:13:05.635Z,101299.47
2023-02-02T02:15:53.105Z,101287.88
2023-02-02T02:18:31.740Z,101297.34
2023-02-02T02:21:33.180Z,101300.13
2023-02-02T02:24:37.557Z,101300.94
2023-02-02T02:27:09.917Z,101306.19
2023-02-02T02:29:48.482Z,101299.47
2023-02-02T02:32:15.782Z,101296.06
2023-02-02T02:34:48.325Z,101293.75
2023-02-02T02:37:30.534Z,101295.56
2023-02-02T02:40:06.126Z,101292.94
2023-02-02T02:42:34.763Z,101290.31
2023-02-02T02:45:02.243Z,101290.47
2023-02-02T02:47:29.565Z,101290.63
2023-02-02T02:49:55.859Z,101283.59
2023-02-02T02:52:22.241Z,101290.47
2023-02-02T02:54:53.530Z,101283.41
2023-02-02T02:57:25.758Z,101292.28
2023-02-02T03:00:01.050Z,101289.97
2023-02-02T03:02:28.884Z,101297.34
2023-02-02T03:05:04.544Z,101300.63
2023-02-02T03:07:36.355Z,101304.69
2023-02-02T03:10:05.274Z,101299.63
2023-02-02T03:12:31.650Z,101293.72
2023-02-02T03:14:58.138Z,101289.44
2023-02-02T03:17:26.807Z,101291.59
2023-02-02T03:19:53.221Z,101298.78
2023-02-02T03:22:21.042Z,101293.22
2023-02-02T03:24:47.496Z,101286.19
2023-02-02T03:27:13.843Z,101280.63
2023-02-02T03:29:40.154Z,101284.22
2023-02-02T03:32:06.599Z,101281.09
2023-02-02T03:34:33.023Z,101289.44
2023-02-02T03:36:59.293Z,101278.31
2023-02-02T03:39:25.727Z,101285.53
2023-02-02T03:41:52.021Z,101286.00
2023-02-02T03:44:18.386Z,101286.81
2023-02-02T03:46:44.779Z,101294.03
2023-02-02T03:49:11.127Z,101286.00
2023-02-02T03:51:37.412Z,101282.06
2023-02-02T03:54:05.108Z,101283.69
2023-02-02T03:56:31.398Z,101285.66
2023-02-02T03:58:57.951Z,101287.28
2023-02-02T04:01:28.912Z,101288.97
2023-02-02T04:03:56.036Z,101288.16
2023-02-02T04:06:22.857Z,101293.72
2023-02-02T04:08:49.333Z,101299.28
2023-02-02T04:11:15.976Z,101288.16
2023-02-02T04:13:43.541Z,101302.88
2023-02-02T04:16:10.592Z,101299.28
2023-02-02T04:18:39.597Z,101295.34
2023-02-02T04:21:06.999Z,101286.16
2023-02-02T04:23:33.293Z,101295.34
2023-02-02T04:25:59.627Z,101299.59
2023-02-02T04:28:26.618Z,101304.34
2023-02-02T04:30:54.082Z,101299.13
2023-02-02T04:33:21.328Z,101311.06
2023-02-02T04:35:47.788Z,101306.97
2023-02-02T04:38:14.054Z,101305.03
2023-02-02T04:40:41.563Z,101309.75
2023-02-02T04:43:09.069Z,101315.31
2023-02-02T04:45:36.076Z,101310.91
2023-02-02T04:48:02.714Z,101313.69
2023-02-02T04:50:29.428Z,101300.09
2023-02-02T04:52:55.895Z,101309.28
2023-02-02T04:55:22.720Z,101305.16
2023-02-02T04:57:49.093Z,101307.13
2023-02-02T05:00:15.939Z,101313.84
2023-02-02T05:02:43.024Z,101312.22
2023-02-02T05:05:11.221Z,101308.94
2023-02-02T05:07:38.836Z,101315.34
2023-02-02T05:10:05.558Z,101312.56
2023-02-02T05:12:31.854Z,101300.59
2023-02-02T05:15:01.408Z,101303.38
2023-02-02T05:17:29.762Z,101304.22
2023-02-02T05:19:56.184Z,101311.41
2023-02-02T05:22:22.557Z,101293.91
2023-02-02T05:24:49.179Z,101297.81
2023-02-02T05:27:15.483Z,101300.59
2023-02-02T05:29:41.987Z,101284.22
2023-02-02T05:32:08.314Z,101293.06
2023-02-02T05:34:34.553Z,101287.50
2023-02-02T05:37:00.864Z,101285.53
2023-02-02T05:39:27.383Z,101286.34
2023-02-02T05:41:53.889Z,101275.22
2023-02-02T05:44:20.355Z,101283.22
2023-02-02T05:46:47.766Z,101286.84
2023-02-02T05:49:14.409Z,101280.97
2023-02-02T05:51:43.554Z,101288.97
2023-02-02T05:54:09.981Z,101290.59
2023-02-02T05:56:36.270Z,101294.19
2023-02-02T05:59:06.287Z,101291.09
2023-02-02T06:01:32.841Z,101282.75
2023-02-02T06:03:59.374Z,101294.03
2023-02-02T06:06:25.674Z,101301.22
2023-02-02T06:08:55.422Z,101301.72
2023-02-02T06:11:21.713Z,101295.00
2023-02-02T06:13:48.319Z,101306.63
2023-02-02T06:16:14.709Z,101308.28
2023-02-02T06:18:41.054Z,101301.53
2023-02-02T06:21:07.574Z,101301.53
2023-02-02T06:23:34.588Z,101299.22
2023-02-02T06:26:01.807Z,101300.03
2023-02-02T06:28:28.020Z,101310.06
2023-02-02T06:30:54.427Z,101303.38
2023-02-02T06:33:21.195Z,101310.56
2023-02-02T06:35:47.810Z,101308.59
2023-02-02T06:38:14.975Z,101314.97
2023-02-02T06:40:41.267Z,101318.25
2023-02-02T06:43:08.996Z,101321.88
2023-02-02T06:45:40.047Z,101326.28
2023-02-02T06:48:11.098Z,101327.09
2023-02-02T06:50:38.517Z,101332.31
2023-02-02T06:53:04.974Z,101330.84
2023-02-02T06:55:32.191Z,101337.25
2023-02-02T06:57:59.422Z,101338.06
2023-02-02T07:00:26.403Z,101333.00
2023-02-02T07:02:52.890Z,101338.22
2023-02-02T07:05:20.583Z,101333.00
2023-02-02T07:07:46.908Z,101334.97
2023-02-02T07:11:14.157Z,101336.59
2023-02-02T07:13:00.962Z,101341.00
2023-02-02T07:15:27.387Z,101341.81
2023-02-02T07:17:54.549Z,101344.25
2023-02-02T07:20:20.857Z,101347.06
2023-02-02T07:22:47.135Z,101345.06
2023-02-02T07:25:13.353Z,101345.06
2023-02-02T07:27:39.816Z,101352.31
2023-02-02T07:30:06.451Z,101348.72
2023-02-02T07:32:32.734Z,101344.78
2023-02-02T07:34:59.049Z,101353.94
2023-02-02T07:37:25.373Z,101356.72
2023-02-02T07:39:51.679Z,101348.38
2023-02-02T07:42:18.432Z,101358.34
2023-02-02T07:44:44.793Z,101351.16
2023-02-02T07:47:11.079Z,101357.53
2023-02-02T07:49:37.348Z,101356.72
2023-02-02T07:52:03.995Z,101363.09
2023-02-02T07:54:32.074Z,101361.47
2023-02-02T07:56:58.475Z,101363.09
2023-02-02T07:59:24.741Z,101361.97
2023-02-02T08:01:51.573Z,101359.97
2023-02-02T08:04:18.811Z,101352.78
2023-02-02T08:06:46.556Z,101367.53
2023-02-02T08:09:13.007Z,101369.50
2023-02-02T08:11:39.462Z,101370.31
2023-02-02T08:14:06.425Z,101376.38
2023-02-02T08:16:33.305Z,101378.00
2023-02-02T08:18:59.999Z,101364.91
2023-02-02T08:21:26.325Z,101376.50
2023-02-02T08:23:53.252Z,101382.91
2023-02-02T08:26:22.382Z,101377.03
2023-02-02T08:28:49.923Z,101378.31
2023-02-02T08:31:19.037Z,101384.38
2023-02-02T08:33:46.967Z,101393.56
2023-02-02T08:36:14.271Z,101391.25
2023-02-02T08:38:40.883Z,101397.31
2023-02-02T08:41:08.351Z,101390.59
2023-02-02T08:43:34.831Z,101399.44
2023-02-02T08:46:05.457Z,101395.53
2023-02-02T08:48:32.316Z,101397.97
2023-02-02T08:50:59.174Z,101400.41
2023-02-02T08:53:26.534Z,101408.41
2023-02-02T08:55:59.091Z,101405.31
2023-02-02T08:58:25.828Z,101413.69
2023-02-02T09:00:53.709Z,101415.78
2023-02-02T09:03:20.102Z,101426.94
2023-02-02T09:05:46.515Z,101427.09
2023-02-02T09:08:14.298Z,101422.34
2023-02-02T09:10:40.729Z,101436.78
2023-02-02T09:13:06.977Z,101439.56
2023-02-02T09:15:33.259Z,101445.28
2023-02-02T09:17:59.532Z,101438.56
2023-02-02T09:20:26.064Z,101440.19
2023-02-02T09:22:54.836Z,101443.81
2023-02-02T09:25:21.229Z,101450.19
2023-02-02T09:27:47.512Z,101456.59
2023-02-02T09:30:14.031Z,101459.38
2023-02-02T09:32:40.447Z,101471.03
2023-02-02T09:35:07.043Z,101459.03
2023-02-02T09:37:33.766Z,101469.06
2023-02-02T09:40:00.112Z,101468.72
2023-02-02T09:42:32.261Z,101466.75
2023-02-02T09:45:08.757Z,101475.59
2023-02-02T09:47:52.217Z,101476.41
2023-02-02T09:50:22.190Z,101476.91
2023-02-02T09:52:56.276Z,101481.81
2023-02-02T09:55:36.809Z,101492.63
2023-02-02T09:58:06.114Z,101501.16
2023-02-02T10:00:38.102Z,101494.09
2023-02-02T10:03:07.481Z,101501.28
2023-02-02T10:05:54.550Z,101510.16
2023-02-02T10:08:34.657Z,101512.94
2023-02-02T10:11:04.235Z,101514.56
2023-02-02T10:13:34.208Z,101509.81
2023-02-02T10:16:11.428Z,101519.00
2023-02-02T10:18:56.577Z,101525.38
2023-02-02T10:21:34.791Z,101526.22
2023-02-02T10:24:02.576Z,101533.09
2023-02-02T10:26:40.205Z,101537.88
2023-02-02T10:29:12.504Z,101533.09
2023-02-02T10:31:42.315Z,101539.84
2023-02-02T10:34:08.601Z,101549.03
2023-02-02T10:36:46.087Z,101542.63
2023-02-02T10:39:18.401Z,101546.56
2023-02-02T10:41:44.676Z,101550.47
2023-02-02T10:44:21.895Z,101558.84
2023-02-02T10:46:53.066Z,101556.06
2023-02-02T10:49:19.352Z,101546.06
2023-02-02T10:51:49.119Z,101550.81
2023-02-02T10:54:29.617Z,101554.78
2023-02-02T10:56:58.493Z,101555.59
2023-02-02T10:59:29.878Z,101557.91
2023-02-02T11:01:56.620Z,101561.00
2023-02-02T11:04:41.715Z,101557.06
2023-02-02T11:07:08.577Z,101559.84
2023-02-02T11:09:41.055Z,101562.63
2023-02-02T11:12:15.832Z,101570.19
2023-02-02T11:14:49.588Z,101560.53
2023-02-02T11:17:19.279Z,101568.06
2023-02-02T11:19:45.619Z,101558.38
2023-02-02T11:22:24.042Z,101569.06
2023-02-02T11:24:52.469Z,101564.13
2023-02-02T11:27:31.352Z,101568.06
2023-02-02T11:30:00.052Z,101563.31
2023-02-02T11:32:27.742Z,101567.25
2023-02-02T11:35:06.255Z,101561.69
2023-02-02T11:37:33.462Z,101564.47
2023-02-02T11:40:18.585Z,101554.13
2023-02-02T11:42:46.984Z,101547.41
2023-02-02T11:45:18.289Z,101553.50
2023-02-02T11:47:44.920Z,101558.72
2023-02-02T11:50:24.084Z,101575.63
2023-02-02T11:52:50.701Z,101555.75
2023-02-02T11:55:18.093Z,101566.56
2023-02-02T11:58:04.310Z,101562.31
2023-02-02T12:00:30.941Z,101564.78
2023-02-02T12:02:59.875Z,101568.38
2023-02-02T12:05:26.147Z,101564.94
2023-02-02T12:07:52.488Z,101565.28
2023-02-02T12:10:34.011Z,101564.44
2023-02-02T12:13:07.651Z,101580.84
2023-02-02T12:15:50.927Z,101565.28
2023-02-02T12:18:32.724Z,101574.47
2023-02-02T12:21:07.287Z,101573.63
2023-02-02T12:23:43.011Z,101578.38
2023-02-02T12:26:18.532Z,101583.94
2023-02-02T12:28:52.742Z,101587.91
2023-02-02T12:31:31.202Z,101585.91
2023-02-02T12:34:02.369Z,101583.47
2023-02-02T12:36:38.120Z,101590.22
2023-02-02T12:39:07.109Z,101578.53
2023-02-02T12:41:51.801Z,101585.78
2023-02-02T12:44:22.824Z,101582.50
2023-02-02T12:46:49.116Z,101576.91
2023-02-02T12:49:30.384Z,101585.28
2023-02-02T12:52:16.817Z,101578.88
2023-02-02T12:54:57.380Z,101584.13
2023-02-02T12:57:31.570Z,101583.81
2023-02-02T13:00:00.909Z,101579.06
2023-02-02T13:02:58.815Z,101580.69
2023-02-02T13:05:31.248Z,101582.31
2023-02-02T13:08:04.819Z,101586.44
2023-02-02T13:10:34.510Z,101580.50
2023-02-02T13:13:09.651Z,101572.97
2023-02-02T13:15:37.610Z,101584.63
2023-02-02T13:18:10.084Z,101584.63
2023-02-02T13:20:53.015Z,101592.66
2023-02-02T13:23:26.328Z,101585.09
2023-02-02T13:25:55.501Z,101586.72
2023-02-02T13:28:34.853Z,101599.50
2023-02-02T13:31:05.404Z,101595.91
2023-02-02T13:33:34.158Z,101599.84
2023-02-02T13:36:02.315Z,101597.88
2023-02-02T13:38:34.273Z,101596.25
2023-02-02T13:41:03.932Z,101597.06
2023-02-02T13:43:36.898Z,101604.28
2023-02-02T13:46:22.069Z,101608.22
2023-02-02T13:48:57.159Z,101612.66
2023-02-02T13:51:29.534Z,101610.19
2023-02-02T13:54:05.236Z,101599.84
2023-02-02T13:56:40.442Z,101609.03
2023-02-02T13:59:06.884Z,101596.25
2023-02-02T14:01:33.513Z,101596.25
2023-02-02T14:04:00.543Z,101603.47
2023-02-02T14:06:27.663Z,101605.09
2023-02-02T14:08:59.852Z,101598.69
2023-02-02T14:11:29.152Z,101600.38
2023-02-02T14:14:17.376Z,101608.72
2023-02-02T14:16:45.469Z,101604.78
2023-02-02T14:19:17.846Z,101616.25
2023-02-02T14:22:01.297Z,101617.09
2023-02-02T14:24:27.610Z,101617.09
2023-02-02T14:27:01.560Z,101624.97
2023-02-02T14:29:29.541Z,101626.13
2023-02-02T14:31:57.356Z,101626.13
2023-02-02T14:34:26.982Z,101625.31
2023-02-02T14:37:20.700Z,101625.31
2023-02-02T14:39:53.913Z,101627.56
2023-02-02T14:42:39.131Z,101623.16
2023-02-02T14:45:11.418Z,101633.50
2023-02-02T14:47:42.283Z,101637.09
2023-02-02T14:50:22.304Z,101629.41
2023-02-02T14:53:15.524Z,101635.47
2023-02-02T14:55:56.969Z,101641.88
2023-02-02T14:58:26.031Z,101653.84
2023-02-02T15:01:05.481Z,101667.78
2023-02-02T15:03:36.792Z,101662.53
2023-02-02T15:06:14.077Z,101658.94
2023-02-02T15:08:40.515Z,101664.50
2023-02-02T15:11:26.802Z,101667.94
2023-02-02T15:13:57.036Z,101663.53
2023-02-02T15:16:26.565Z,101673.88
2023-02-02T15:19:00.132Z,101656.31
2023-02-02T15:21:27.500Z,101670.25
2023-02-02T15:23:54.132Z,101663.00
2023-02-02T15:26:24.777Z,101651.38
2023-02-02T15:28:54.349Z,101663.34
2023-02-02T15:31:23.696Z,101666.16
2023-02-02T15:33:52.294Z,101656.97
2023-02-02T15:36:22.054Z,101668.44
2023-02-02T15:38:49.338Z,101669.28
2023-02-02T15:41:21.406Z,101669.59
2023-02-02T15:43:47.908Z,101677.97
2023-02-02T15:46:24.185Z,101677.97
2023-02-02T15:49:09.300Z,101684.38
2023-02-02T15:51:35.611Z,101691.56
2023-02-02T15:54:01.892Z,101688.78
2023-02-02T15:56:29.694Z,101694.38
2023-02-02T15:58:58.413Z,101689.44
2023-02-02T16:01:25.791Z,101696.66
2023-02-02T16:04:08.426Z,101688.28
2023-02-02T16:06:34.951Z,101697.50
2023-02-02T16:09:04.444Z,101695.81
2023-02-02T16:11:30.770Z,101700.59
2023-02-02T16:14:01.925Z,101701.09
2023-02-02T16:16:39.902Z,101698.31
2023-02-02T16:19:09.465Z,101696.34
2023-02-02T16:21:40.597Z,101702.38
2023-02-02T16:24:12.404Z,101703.22
2023-02-02T16:26:38.888Z,101693.69
2023-02-02T16:29:09.964Z,101706.16
2023-02-02T16:31:36.506Z,101702.22
2023-02-02T16:34:04.489Z,101710.28
2023-02-02T16:36:30.833Z,101711.91
2023-02-02T16:38:58.145Z,101718.78
2023-02-02T16:41:28.968Z,101712.41
2023-02-02T16:43:55.721Z,101707.63
2023-02-02T16:46:54.395Z,101706.00
2023-02-02T16:49:26.059Z,101721.94
2023-02-02T16:52:10.938Z,101714.38
2023-02-02T16:54:38.440Z,101721.94
2023-02-02T16:57:05.238Z,101721.59
2023-02-02T16:59:35.767Z,101738.31
2023-02-02T17:02:20.917Z,101746.69
2023-02-02T17:04:49.600Z,101740.63
2023-02-02T17:07:16.771Z,101737.31
2023-02-02T17:09:44.419Z,101750.47
2023-02-02T17:12:33.413Z,101741.59
2023-02-02T17:15:20.392Z,101743.56
2023-02-02T17:17:48.411Z,101747.81
2023-02-02T17:20:15.596Z,101743.06
2023-02-02T17:22:43.698Z,101740.63
2023-02-02T17:25:17.307Z,101750.13
2023-02-02T17:27:45.161Z,101753.25
2023-02-02T17:30:16.604Z,101761.63
2023-02-02T17:32:42.899Z,101759.97
2023-02-02T17:35:17.443Z,101762.75
2023-02-02T17:37:43.849Z,101767.50
2023-02-02T17:40:16.029Z,101764.72
2023-02-02T17:42:43.267Z,101760.28
2023-02-02T17:45:11.894Z,101761.09
2023-02-02T17:47:38.508Z,101761.09
2023-02-02T17:50:04.896Z,101766.69
2023-02-02T17:52:31.289Z,101768.00
2023-02-02T17:54:59.977Z,101766.03
2023-02-02T17:57:26.409Z,101766.03
2023-02-02T17:59:52.715Z,101757.97
2023-02-02T18:02:19.142Z,101758.16
2023-02-02T18:04:45.860Z,101760.94
2023-02-02T18:07:12.383Z,101758.16
2023-02-02T18:09:38.659Z,101759.31
2023-02-02T18:12:05.283Z,101757.69
2023-02-02T18:14:31.589Z,101761.94
2023-02-02T18:16:57.844Z,101766.69
2023-02-02T18:19:24.251Z,101755.53
2023-02-02T18:21:50.562Z,101754.22
2023-02-02T18:24:16.830Z,101756.16
2023-02-02T18:26:43.146Z,101757.31
2023-02-02T18:29:09.681Z,101753.72
2023-02-02T18:31:36.097Z,101762.09
2023-02-02T18:34:02.447Z,101755.69
2023-02-02T18:36:28.801Z,101758.81
2023-02-02T18:38:56.061Z,101746.50
2023-02-02T18:41:22.429Z,101756.03
2023-02-02T18:43:49.551Z,101742.09
2023-02-02T18:46:16.411Z,101753.25
2023-02-02T18:48:43.169Z,101752.41
2023-02-02T18:51:16.128Z,101754.38
2023-02-02T18:53:46.204Z,101748.47
2023-02-02T18:56:13.556Z,101739.28
2023-02-02T18:58:40.666Z,101745.69
2023-02-02T19:01:10.053Z,101757.66
2023-02-02T19:03:39.529Z,101745.69
2023-02-02T19:06:25.023Z,101738.16
2023-02-02T19:08:51.740Z,101748.16
2023-02-02T19:11:19.394Z,101739.44
2023-02-02T19:13:45.844Z,101746.19
2023-02-02T19:16:24.391Z,101750.28
2023-02-02T19:18:50.982Z,101748.16
2023-02-02T19:21:17.516Z,101753.38
2023-02-02T19:23:46.202Z,101748.31
2023-02-02T19:26:20.932Z,101747.50
2023-02-02T19:28:47.350Z,101743.09
2023-02-02T19:31:14.543Z,101754.22
2023-02-02T19:33:47.926Z,101761.94
2023-02-02T19:36:15.911Z,101763.91
2023-02-02T19:38:42.370Z,101763.25
2023-02-02T19:41:20.013Z,101771.28
2023-02-02T19:43:47.781Z,101764.56
2023-02-02T19:46:22.234Z,101766.19
2023-02-02T19:48:51.763Z,101768.97
2023-02-02T19:51:23.762Z,101757.53
2023-02-02T19:53:55.655Z,101773.09
2023-02-02T19:56:26.697Z,101770.78
2023-02-02T19:58:53.202Z,101779.66
2023-02-02T20:01:20.580Z,101772.94
2023-02-02T20:03:47.225Z,101765.06
2023-02-02T20:06:23.743Z,101765.56
2023-02-02T20:08:50.250Z,101761.63
2023-02-02T20:11:32.040Z,101768.84
2023-02-02T20:14:18.524Z,101769.34
2023-02-02T20:16:48.350Z,101771.81
2023-02-02T20:19:16.937Z,101770.34
2023-02-02T20:21:45.501Z,101765.59
2023-02-02T20:24:16.837Z,101765.25
2023-02-02T20:26:43.358Z,101760.16
2023-02-02T20:29:32.900Z,101763.78
2023-02-02T20:31:59.217Z,101758.19
2023-02-02T20:34:28.032Z,101756.72
2023-02-02T20:36:58.265Z,101760.66
2023-02-02T20:39:40.408Z,101757.53
2023-02-02T20:42:07.057Z,101757.22
2023-02-02T20:44:34.753Z,101756.38
2023-02-02T20:47:01.368Z,101758.53
2023-02-02T20:49:28.641Z,101752.94
2023-02-02T20:51:56.194Z,101757.88
2023-02-02T20:54:23.112Z,101758.69
2023-02-02T20:56:49.767Z,101754.41
2023-02-02T20:59:16.104Z,101750.50
2023-02-02T21:01:42.835Z,101755.44
2023-02-02T21:04:09.996Z,101748.69
2023-02-02T21:06:38.999Z,101750.00
2023-02-02T21:09:06.271Z,101762.81
2023-02-02T21:11:32.566Z,101770.84
2023-02-02T21:13:59.415Z,101758.56
2023-02-02T21:16:26.271Z,101760.19
2023-02-02T21:18:52.860Z,101770.19
2023-02-02T21:21:21.153Z,101772.66
2023-02-02T21:23:47.453Z,101781.03
2023-02-02T21:26:14.674Z,101784.63
2023-02-02T21:28:41.225Z,101783.00
2023-02-02T21:31:08.110Z,101799.44
2023-02-02T21:33:34.638Z,101799.09
2023-02-02T21:36:03.071Z,101800.25
2023-02-02T21:38:30.430Z,101797.13
2023-02-02T21:40:58.010Z,101792.69
2023-02-02T21:43:24.444Z,101788.75
2023-02-02T21:45:56.398Z,101788.41
2023-02-02T21:48:28.563Z,101787.59
2023-02-02T21:50:55.013Z,101792.88
2023-02-02T21:53:25.157Z,101794.00
2023-02-02T21:55:54.295Z,101788.91
2023-02-02T21:58:25.624Z,101785.78
2023-02-02T22:00:53.230Z,101771.84
2023-02-02T22:03:26.389Z,101758.69
2023-02-02T22:05:53.506Z,101758.69
2023-02-02T22:08:23.229Z,101750.31
2023-02-02T22:10:49.683Z,101764.28
2023-02-02T22:13:17.739Z,101775.44
2023-02-02T22:15:48.258Z,101759.84
2023-02-02T22:18:22.738Z,101748.69
2023-02-02T22:20:50.866Z,101758.69
2023-02-02T22:23:21.923Z,101764.28
2023-02-02T22:25:49.687Z,101756.72
2023-02-02T22:28:21.164Z,101754.75
2023-02-02T22:30:49.022Z,101765.59
2023-02-02T22:33:16.116Z,101773.16
2023-02-02T22:35:43.569Z,101772.31
2023-02-02T22:38:10.500Z,101781.19
2023-02-02T22:40:37.831Z,101776.44
2023-02-02T22:43:05.635Z,101768.88
2023-02-02T22:45:32.454Z,101766.91
2023-02-02T22:47:58.672Z,101766.59
2023-02-02T22:50:27.548Z,101753.09
2023-02-02T22:52:54.328Z,101748.34
2023-02-02T22:55:20.989Z,101743.22
2023-02-02T22:57:47.788Z,101757.19
2023-02-02T23:00:16.210Z,101766.41
2023-02-02T23:02:42.927Z,101759.66
2023-02-02T23:05:10.444Z,101749.66
2023-02-02T23:07:37.756Z,101741.28
2023-02-02T23:10:04.976Z,101754.09
2023-02-02T23:12:31.309Z,101761.66
2023-02-02T23:14:57.580Z,101757.69
2023-02-02T23:17:24.099Z,101761.66
2023-02-02T23:19:50.480Z,101760.50
2023-02-02T23:22:16.756Z,101746.53
2023-02-02T23:24:44.766Z,101752.94
2023-02-02T23:27:12.934Z,101748.16
2023-02-02T23:29:39.388Z,101748.16
2023-02-02T23:32:07.210Z,101751.78
2023-02-02T23:34:33.779Z,101747.00
2023-02-02T23:37:00.364Z,101735.03
2023-02-02T23:39:26.656Z,101740.28
2023-02-02T23:41:52.973Z,101732.72
2023-02-02T23:44:19.402Z,101735.19
2023-02-02T23:46:45.975Z,101720.06
2023-02-02T23:49:12.767Z,101718.91
2023-02-02T23:51:39.086Z,101712.50
2023-02-02T23:54:05.703Z,101695.91
2023-02-02T23:56:31.968Z,101699.06
2023-02-02T23:58:58.276Z,101694.75
